Time;durP1;ratioP1;P1;durP2;ratioP2;P2;SDS_P1;SDS_P2;PMS_P1;PMS_P2;Temp;Humidity;BMP_temperature;BMP_pressure;BME280_temperature;BME280_humidity;BME280_pressure;Samples;Min_cycle;Max_cycle;Signal;HPM_P1;HPM_P2
2023/12/17 00:02:22;;;;;;;7.82;1.60;;;;;;;;;;5015613;28;20192;-79
2023/12/17 00:04:52;;;;;;;10.32;1.70;;;;;;;;;;5014926;28;20207;-79
2023/12/17 00:07:22;;;;;;;6.70;1.65;;;;;;;;;;5014537;28;20203;-79
2023/12/17 00:09:52;;;;;;;5.38;1.25;;;;;;;;;;5014782;28;20205;-77
2023/12/17 00:12:22;;;;;;;11.20;1.92;;;;;;;;;;5015310;28;20199;-79
2023/12/17 00:14:54;;;;;;;8.05;1.90;;;;;;;;;;5013948;28;20202;-78
2023/12/17 00:17:24;;;;;;;7.35;1.60;;;;;;;;;;5003631;28;20226;-76
2023/12/17 00:19:54;;;;;;;7.72;1.50;;;;;;;;;;5012860;28;20209;-76
2023/12/17 00:22:26;;;;;;;9.65;1.75;;;;;;;;;;5011130;28;20278;-80
2023/12/17 00:24:56;;;;;;;8.50;1.55;;;;;;;;;;5010258;28;20202;-78
2023/12/17 00:27:26;;;;;;;8.63;1.80;;;;;;;;;;5013204;28;20227;-77
2023/12/17 00:29:58;;;;;;;7.03;1.60;;;;;;;;;;5009455;28;20196;-76
2023/12/17 00:32:28;;;;;;;10.18;1.67;;;;;;;;;;5008033;28;20289;-76
2023/12/17 00:34:58;;;;;;;6.93;1.40;;;;;;;;;;5014792;28;20207;-75
2023/12/17 00:37:28;;;;;;;7.63;1.75;;;;;;;;;;4995483;28;20323;-77
2023/12/17 00:39:58;;;;;;;8.23;1.52;;;;;;;;;;5013927;28;20235;-76
2023/12/17 00:42:28;;;;;;;9.77;1.95;;;;;;;;;;5014589;28;20202;-76
2023/12/17 00:45:00;;;;;;;8.07;1.60;;;;;;;;;;5014383;28;20573;-78
2023/12/17 00:47:30;;;;;;;7.82;1.73;;;;;;;;;;5007614;28;20636;-76
2023/12/17 00:50:00;;;;;;;7.72;1.45;;;;;;;;;;5013532;28;20199;-79
2023/12/17 00:52:30;;;;;;;8.85;1.98;;;;;;;;;;5014561;28;20654;-75
2023/12/17 00:55:00;;;;;;;10.52;1.63;;;;;;;;;;5005644;28;20202;-79
2023/12/17 00:57:30;;;;;;;13.52;2.80;;;;;;;;;;4999405;28;20225;-80
2023/12/17 01:00:03;;;;;;;6.50;1.60;;;;;;;;;;4994319;28;20617;-80
2023/12/17 01:02:33;;;;;;;4.38;1.35;;;;;;;;;;4998557;28;20191;-80
2023/12/17 01:05:03;;;;;;;6.88;1.30;;;;;;;;;;5008791;28;20282;-82
2023/12/17 01:07:33;;;;;;;5.32;1.35;;;;;;;;;;5014367;28;20199;-81
2023/12/17 01:10:03;;;;;;;6.22;1.55;;;;;;;;;;5010219;28;20206;-76
2023/12/17 01:12:33;;;;;;;8.43;2.05;;;;;;;;;;5008162;28;20313;-75
2023/12/17 01:15:05;;;;;;;4.15;1.23;;;;;;;;;;5000957;28;20678;-76
2023/12/17 01:17:35;;;;;;;5.90;1.30;;;;;;;;;;5011615;28;20254;-76
2023/12/17 01:20:05;;;;;;;7.85;1.50;;;;;;;;;;5009464;28;20202;-76
2023/12/17 01:22:35;;;;;;;4.18;1.33;;;;;;;;;;4994321;28;20238;-79
2023/12/17 01:25:05;;;;;;;7.15;1.50;;;;;;;;;;4994685;28;20207;-82
2023/12/17 01:27:34;;;;;;;7.03;1.63;;;;;;;;;;5000308;28;20234;-78
2023/12/17 01:30:06;;;;;;;9.00;1.95;;;;;;;;;;5003124;28;20206;-80
2023/12/17 01:32:36;;;;;;;6.78;1.55;;;;;;;;;;5010287;28;20191;-80
2023/12/17 01:35:08;;;;;;;7.63;1.50;;;;;;;;;;4996245;28;20199;-76
2023/12/17 01:37:38;;;;;;;7.07;1.52;;;;;;;;;;5002348;28;20211;-77
2023/12/17 01:40:08;;;;;;;8.95;1.40;;;;;;;;;;4993101;28;20570;-80
2023/12/17 01:42:38;;;;;;;5.03;1.10;;;;;;;;;;4994351;28;20214;-80
2023/12/17 01:45:10;;;;;;;8.63;1.58;;;;;;;;;;5000578;28;20200;-81
2023/12/17 01:47:41;;;;;;;6.53;1.48;;;;;;;;;;4997777;28;20187;-79
2023/12/17 01:50:11;;;;;;;5.85;1.48;;;;;;;;;;5008428;28;20630;-79
2023/12/17 01:52:42;;;;;;;6.35;1.40;;;;;;;;;;5013729;28;20203;-81
2023/12/17 01:55:12;;;;;;;6.18;1.40;;;;;;;;;;5012603;28;20194;-80
2023/12/17 01:57:42;;;;;;;9.48;1.70;;;;;;;;;;5013600;28;20241;-80
2023/12/17 02:00:15;;;;;;;7.55;1.40;;;;;;;;;;5013836;28;20206;-77
2023/12/17 02:02:45;;;;;;;6.80;1.33;;;;;;;;;;5013720;28;20195;-79
2023/12/17 02:05:15;;;;;;;7.13;1.80;;;;;;;;;;5013407;28;20199;-75
2023/12/17 02:07:45;;;;;;;6.45;1.48;;;;;;;;;;5013874;28;20306;-75
2023/12/17 02:10:15;;;;;;;4.68;1.30;;;;;;;;;;5013688;28;20658;-76
2023/12/17 02:12:45;;;;;;;6.72;1.45;;;;;;;;;;5013506;28;20209;-77
2023/12/17 02:15:17;;;;;;;8.07;1.55;;;;;;;;;;5013829;28;20207;-77
2023/12/17 02:17:47;;;;;;;5.38;1.40;;;;;;;;;;5013409;28;20242;-75
2023/12/17 02:20:17;;;;;;;7.72;1.27;;;;;;;;;;5013349;28;20271;-76
2023/12/17 02:22:50;;;;;;;6.90;1.40;;;;;;;;;;5013591;28;20210;-79
2023/12/17 02:25:22;;;;;;;5.95;1.35;;;;;;;;;;5013393;28;20195;-76
2023/12/17 02:27:52;;;;;;;8.10;1.30;;;;;;;;;;5013419;28;20233;-76
2023/12/17 02:30:22;;;;;;;4.90;1.58;;;;;;;;;;5014544;28;20198;-80
2023/12/17 02:32:52;;;;;;;4.43;1.20;;;;;;;;;;5017592;28;20206;-79
2023/12/17 02:35:23;;;;;;;9.60;1.40;;;;;;;;;;5017075;28;20209;-78
2023/12/17 02:37:53;;;;;;;6.18;1.38;;;;;;;;;;5017166;28;20214;-76
2023/12/17 02:40:25;;;;;;;4.20;1.17;;;;;;;;;;5017373;28;20204;-78
2023/12/17 02:42:55;;;;;;;8.20;1.77;;;;;;;;;;5017414;28;20223;-79
2023/12/17 02:45:25;;;;;;;6.72;1.30;;;;;;;;;;5017119;28;20207;-78
2023/12/17 02:47:57;;;;;;;5.82;1.20;;;;;;;;;;5016958;28;20198;-76
2023/12/17 02:50:28;;;;;;;8.65;1.73;;;;;;;;;;5017308;28;20242;-77
2023/12/17 02:52:58;;;;;;;4.38;1.20;;;;;;;;;;5016953;28;20202;-79
2023/12/17 02:55:29;;;;;;;5.80;1.30;;;;;;;;;;5017209;28;20203;-77
2023/12/17 02:57:59;;;;;;;4.35;1.08;;;;;;;;;;5016825;28;20222;-75
2023/12/17 03:00:29;;;;;;;5.80;1.20;;;;;;;;;;5016784;28;20298;-78
2023/12/17 03:02:59;;;;;;;6.38;1.20;;;;;;;;;;5016785;28;20237;-78
2023/12/17 03:05:29;;;;;;;3.47;1.20;;;;;;;;;;5016713;28;20675;-78
2023/12/17 03:07:59;;;;;;;7.47;1.15;;;;;;;;;;5016850;28;20213;-81
2023/12/17 03:10:31;;;;;;;7.60;1.10;;;;;;;;;;5016627;28;20211;-76
2023/12/17 03:13:02;;;;;;;6.53;1.20;;;;;;;;;;5016609;28;20230;-79
2023/12/17 03:15:32;;;;;;;8.23;1.35;;;;;;;;;;5016465;28;20249;-78
2023/12/17 03:18:03;;;;;;;2.85;1.10;;;;;;;;;;4999824;28;20612;-75
2023/12/17 03:20:33;;;;;;;6.80;1.88;;;;;;;;;;4997035;28;20195;-75
2023/12/17 03:23:03;;;;;;;4.63;1.20;;;;;;;;;;4997137;28;20203;-76
2023/12/17 03:25:34;;;;;;;6.28;1.40;;;;;;;;;;4996726;28;20567;-77
2023/12/17 03:28:04;;;;;;;6.28;1.40;;;;;;;;;;4996843;28;20238;-75
2023/12/17 03:30:34;;;;;;;8.02;1.40;;;;;;;;;;4996621;28;20203;-80
2023/12/17 03:33:04;;;;;;;6.13;1.40;;;;;;;;;;4996453;28;20204;-76
2023/12/17 03:35:34;;;;;;;4.40;1.13;;;;;;;;;;4996504;28;20659;-76
2023/12/17 03:38:04;;;;;;;3.95;1.13;;;;;;;;;;4996345;28;20223;-76
2023/12/17 03:40:36;;;;;;;6.93;1.20;;;;;;;;;;4996826;28;20663;-79
2023/12/17 03:43:06;;;;;;;7.43;1.60;;;;;;;;;;4995403;28;20571;-80
2023/12/17 03:45:36;;;;;;;8.35;1.38;;;;;;;;;;4996498;28;20211;-80
2023/12/17 03:48:06;;;;;;;5.88;1.33;;;;;;;;;;4996341;28;20210;-78
2023/12/17 03:50:36;;;;;;;6.20;1.63;;;;;;;;;;4996533;28;20714;-76
2023/12/17 03:53:10;;;;;;;7.03;1.23;;;;;;;;;;4996517;28;20682;-78
2023/12/17 03:55:42;;;;;;;4.20;1.17;;;;;;;;;;4996275;28;20196;-80
2023/12/17 03:58:12;;;;;;;5.68;1.08;;;;;;;;;;4996147;28;20223;-78
2023/12/17 04:00:42;;;;;;;5.95;1.20;;;;;;;;;;4995842;28;20204;-77
2023/12/17 04:03:12;;;;;;;5.90;1.20;;;;;;;;;;4996333;28;20215;-80
2023/12/17 04:05:41;;;;;;;5.13;1.30;;;;;;;;;;4995994;28;20207;-76
2023/12/17 04:08:11;;;;;;;5.22;1.27;;;;;;;;;;4996046;28;20211;-78
2023/12/17 04:10:43;;;;;;;5.40;1.17;;;;;;;;;;4995835;28;20210;-78
2023/12/17 04:13:13;;;;;;;8.32;1.30;;;;;;;;;;4995904;28;20286;-79
2023/12/17 04:15:43;;;;;;;5.50;1.20;;;;;;;;;;4995621;28;20246;-80
2023/12/17 04:18:13;;;;;;;5.43;1.25;;;;;;;;;;4995754;28;20596;-80
2023/12/17 04:20:43;;;;;;;5.63;1.30;;;;;;;;;;4995738;28;20298;-78
2023/12/17 04:23:13;;;;;;;4.10;1.30;;;;;;;;;;4996010;28;20207;-79
2023/12/17 04:25:45;;;;;;;7.00;1.27;;;;;;;;;;4995663;28;20208;-80
2023/12/17 04:28:15;;;;;;;10.18;1.80;;;;;;;;;;4995798;28;20239;-79
2023/12/17 04:30:45;;;;;;;8.80;1.20;;;;;;;;;;4995338;28;20649;-81
2023/12/17 04:33:15;;;;;;;7.65;1.27;;;;;;;;;;4995498;28;20671;-78
2023/12/17 04:35:45;;;;;;;8.05;1.38;;;;;;;;;;4995321;28;20235;-79
2023/12/17 04:38:16;;;;;;;5.18;1.20;;;;;;;;;;4995639;28;20231;-81
2023/12/17 04:40:48;;;;;;;6.45;1.40;;;;;;;;;;4995416;28;20274;-79
2023/12/17 04:43:18;;;;;;;8.63;1.60;;;;;;;;;;4995295;28;20234;-80
2023/12/17 04:45:48;;;;;;;5.25;1.20;;;;;;;;;;4994970;28;20199;-78
2023/12/17 04:48:18;;;;;;;6.60;1.83;;;;;;;;;;4995221;28;20545;-80
2023/12/17 04:50:48;;;;;;;7.40;1.25;;;;;;;;;;4995119;28;20203;-80
2023/12/17 04:56:54;;;;;;;8.65;1.33;;;;;;;;;;4994923;28;20174;-80
2023/12/17 04:59:27;;;;;;;10.23;1.70;;;;;;;;;;4994749;28;20699;-80
2023/12/17 05:01:57;;;;;;;9.27;1.45;;;;;;;;;;4995201;28;20219;-79
2023/12/17 05:04:27;;;;;;;8.48;1.38;;;;;;;;;;4994881;28;20206;-79
2023/12/17 05:06:57;;;;;;;7.82;1.33;;;;;;;;;;4995195;28;20290;-80
2023/12/17 05:09:27;;;;;;;9.10;1.50;;;;;;;;;;4994963;28;20659;-78
2023/12/17 05:12:02;;;;;;;6.75;1.20;;;;;;;;;;4994826;28;20648;-79
2023/12/17 05:14:34;;;;;;;13.02;1.90;;;;;;;;;;4994619;28;20188;-79
2023/12/17 05:17:04;;;;;;;8.18;1.33;;;;;;;;;;4994857;28;20195;-78
2023/12/17 05:19:34;;;;;;;10.65;1.20;;;;;;;;;;4995126;28;20241;-79
2023/12/17 05:22:06;;;;;;;8.90;1.50;;;;;;;;;;4994795;28;20203;-80
2023/12/17 05:24:36;;;;;;;6.07;1.40;;;;;;;;;;4994599;28;20198;-82
2023/12/17 05:27:06;;;;;;;8.50;1.30;;;;;;;;;;4994368;28;20241;-81
2023/12/17 05:29:38;;;;;;;6.53;1.50;;;;;;;;;;4994561;28;20644;-80
2023/12/17 05:32:08;;;;;;;9.15;1.60;;;;;;;;;;4994737;28;20234;-80
2023/12/17 05:34:38;;;;;;;7.25;1.35;;;;;;;;;;4994584;28;20210;-80
2023/12/17 05:37:08;;;;;;;5.47;1.60;;;;;;;;;;4994524;28;20199;-77
2023/12/17 05:39:38;;;;;;;6.60;1.73;;;;;;;;;;4994495;28;20663;-77
2023/12/17 05:42:08;;;;;;;11.00;1.83;;;;;;;;;;4994444;28;20226;-78
2023/12/17 05:44:40;;;;;;;9.50;1.60;;;;;;;;;;4994598;28;20579;-77
2023/12/17 05:47:10;;;;;;;9.63;1.70;;;;;;;;;;4994270;28;20203;-77
2023/12/17 05:49:40;;;;;;;10.82;1.67;;;;;;;;;;4994504;28;20206;-77
2023/12/17 05:52:11;;;;;;;7.32;1.50;;;;;;;;;;4994215;28;20192;-79
2023/12/17 05:54:40;;;;;;;8.68;1.70;;;;;;;;;;4993744;28;20199;-76
2023/12/17 05:57:11;;;;;;;7.88;1.67;;;;;;;;;;4992962;28;20203;-76
2023/12/17 05:59:43;;;;;;;8.63;1.70;;;;;;;;;;5001365;28;20250;-79
2023/12/17 06:02:13;;;;;;;7.85;1.65;;;;;;;;;;4996716;28;20196;-77
2023/12/17 06:04:43;;;;;;;7.07;1.65;;;;;;;;;;4996034;28;20570;-77
2023/12/17 06:07:17;;;;;;;7.93;1.60;;;;;;;;;;4994207;28;20655;-75
2023/12/17 06:09:47;;;;;;;10.15;1.80;;;;;;;;;;5004337;28;20191;-78
2023/12/17 06:12:17;;;;;;;7.90;1.58;;;;;;;;;;4998397;28;20215;-75
2023/12/17 06:14:49;;;;;;;8.88;1.50;;;;;;;;;;5005653;28;20214;-77
2023/12/17 06:17:19;;;;;;;11.52;2.15;;;;;;;;;;5001593;28;20848;-78
2023/12/17 06:19:48;;;;;;;9.02;1.40;;;;;;;;;;5001547;28;20329;-75
2023/12/17 06:22:18;;;;;;;11.68;1.90;;;;;;;;;;5006570;28;20272;-76
2023/12/17 06:24:48;;;;;;;13.02;1.92;;;;;;;;;;4999502;28;20203;-75
2023/12/17 06:27:19;;;;;;;9.02;1.85;;;;;;;;;;4994636;28;20689;-76
2023/12/17 06:29:52;;;;;;;10.15;1.70;;;;;;;;;;5004216;28;20197;-76
2023/12/17 06:32:22;;;;;;;8.90;1.70;;;;;;;;;;4998549;28;20194;-76
2023/12/17 06:34:52;;;;;;;11.95;2.15;;;;;;;;;;4997915;28;20199;-75
2023/12/17 06:37:22;;;;;;;11.05;2.00;;;;;;;;;;4999594;28;20210;-77
2023/12/17 06:39:52;;;;;;;9.13;1.60;;;;;;;;;;4991187;28;20227;-76
2023/12/17 06:42:22;;;;;;;10.07;2.00;;;;;;;;;;4993816;28;20330;-75
2023/12/17 06:44:53;;;;;;;10.65;1.88;;;;;;;;;;4993155;28;20211;-81
2023/12/17 06:47:23;;;;;;;10.18;1.67;;;;;;;;;;4992960;28;20196;-75
2023/12/17 06:49:53;;;;;;;9.23;2.13;;;;;;;;;;4993495;28;20210;-76
2023/12/17 06:52:23;;;;;;;8.75;1.70;;;;;;;;;;4993808;28;20206;-75
2023/12/17 06:54:53;;;;;;;8.73;2.28;;;;;;;;;;4993388;28;20235;-75
2023/12/17 06:57:24;;;;;;;10.55;1.90;;;;;;;;;;4993782;28;20210;-75
2023/12/17 06:59:56;;;;;;;9.32;1.80;;;;;;;;;;5005090;28;20572;-78
2023/12/17 07:02:26;;;;;;;10.57;1.73;;;;;;;;;;5013148;28;20198;-75
2023/12/17 07:04:56;;;;;;;10.02;1.90;;;;;;;;;;5012941;28;20259;-79
2023/12/17 07:07:26;;;;;;;12.85;1.98;;;;;;;;;;5013372;28;20294;-77
2023/12/17 07:09:56;;;;;;;10.98;2.30;;;;;;;;;;5012887;28;20210;-75
2023/12/17 07:12:26;;;;;;;8.18;1.85;;;;;;;;;;5012905;28;20205;-76
2023/12/17 07:14:57;;;;;;;9.80;1.92;;;;;;;;;;5013240;28;20659;-77
2023/12/17 07:17:27;;;;;;;8.00;1.63;;;;;;;;;;5015828;28;20644;-76
2023/12/17 07:19:57;;;;;;;12.00;2.05;;;;;;;;;;5016382;28;20257;-76
2023/12/17 07:22:27;;;;;;;6.70;1.80;;;;;;;;;;5016466;28;20199;-76
2023/12/17 07:24:57;;;;;;;10.18;2.00;;;;;;;;;;5016614;28;20206;-75
2023/12/17 07:27:27;;;;;;;12.18;2.03;;;;;;;;;;5016367;28;20234;-75
2023/12/17 07:29:59;;;;;;;13.10;2.10;;;;;;;;;;5016778;28;20213;-77
2023/12/17 07:32:29;;;;;;;10.50;1.98;;;;;;;;;;5016540;28;20193;-77
2023/12/17 07:34:59;;;;;;;8.48;1.90;;;;;;;;;;5016597;28;20205;-76
2023/12/17 07:37:28;;;;;;;9.60;1.75;;;;;;;;;;5016202;28;20198;-74
2023/12/17 07:39:58;;;;;;;6.43;1.95;;;;;;;;;;5016065;28;20238;-75
2023/12/17 07:42:28;;;;;;;11.82;1.88;;;;;;;;;;5016035;28;20218;-75
2023/12/17 07:45:00;;;;;;;10.25;1.80;;;;;;;;;;5015992;28;20208;-75
2023/12/17 07:47:30;;;;;;;10.85;2.03;;;;;;;;;;5016049;28;20535;-75
2023/12/17 07:50:00;;;;;;;6.72;1.70;;;;;;;;;;5016471;28;20564;-75
2023/12/17 07:52:30;;;;;;;10.27;1.90;;;;;;;;;;5015725;28;20209;-76
2023/12/17 07:55:00;;;;;;;12.32;1.83;;;;;;;;;;5016299;28;20655;-76
2023/12/17 07:57:30;;;;;;;6.30;1.48;;;;;;;;;;5015876;28;20582;-75
2023/12/17 08:00:02;;;;;;;12.48;1.80;;;;;;;;;;5015726;28;20717;-76
2023/12/17 08:02:32;;;;;;;11.98;1.80;;;;;;;;;;5015836;28;20286;-76
2023/12/17 08:05:02;;;;;;;9.25;2.00;;;;;;;;;;5015651;28;20210;-76
2023/12/17 08:07:32;;;;;;;10.98;1.75;;;;;;;;;;5015440;28;20651;-77
2023/12/17 08:10:02;;;;;;;9.15;1.55;;;;;;;;;;5015522;28;20229;-76
2023/12/17 08:12:32;;;;;;;9.20;1.83;;;;;;;;;;5015501;28;20211;-76
2023/12/17 08:15:04;;;;;;;10.23;1.83;;;;;;;;;;5015770;28;20207;-76
2023/12/17 08:17:34;;;;;;;9.90;2.00;;;;;;;;;;5015394;28;20202;-76
2023/12/17 08:20:04;;;;;;;12.40;2.35;;;;;;;;;;5015260;28;20231;-76
2023/12/17 08:22:34;;;;;;;11.00;1.90;;;;;;;;;;5015074;28;20213;-76
2023/12/17 08:25:04;;;;;;;8.20;1.70;;;;;;;;;;5015258;28;20281;-76
2023/12/17 08:27:34;;;;;;;7.15;1.60;;;;;;;;;;5014374;28;20235;-76
2023/12/17 08:30:05;;;;;;;6.07;1.67;;;;;;;;;;5015298;28;20202;-76
2023/12/17 08:32:35;;;;;;;7.63;1.90;;;;;;;;;;5014683;28;20191;-76
2023/12/17 08:35:05;;;;;;;10.45;1.80;;;;;;;;;;5014591;28;20209;-76
2023/12/17 08:37:35;;;;;;;10.15;1.70;;;;;;;;;;5014851;28;20669;-76
2023/12/17 08:40:05;;;;;;;12.63;1.67;;;;;;;;;;5014879;28;20239;-76
2023/12/17 08:42:35;;;;;;;5.10;1.58;;;;;;;;;;5014842;28;20219;-76
2023/12/17 08:45:08;;;;;;;9.65;1.90;;;;;;;;;;5014901;28;20568;-76
2023/12/17 08:47:38;;;;;;;10.40;1.88;;;;;;;;;;5014828;28;20195;-76
2023/12/17 08:50:08;;;;;;;6.20;1.20;;;;;;;;;;5014905;28;20729;-76
2023/12/17 08:52:38;;;;;;;6.40;1.52;;;;;;;;;;5014801;28;20726;-76
2023/12/17 08:55:09;;;;;;;9.93;1.92;;;;;;;;;;5014753;28;20289;-76
2023/12/17 08:57:39;;;;;;;11.43;2.15;;;;;;;;;;5014446;28;20213;-76
2023/12/17 09:00:13;;;;;;;9.18;1.55;;;;;;;;;;5009467;28;20231;-76
2023/12/17 09:02:43;;;;;;;8.20;1.75;;;;;;;;;;5007332;28;20206;-76
2023/12/17 09:05:13;;;;;;;8.05;1.83;;;;;;;;;;5014626;28;20207;-77
2023/12/17 09:07:43;;;;;;;6.18;1.67;;;;;;;;;;5014403;28;20207;-76
2023/12/17 09:10:13;;;;;;;11.13;1.88;;;;;;;;;;5014432;28;20584;-76
2023/12/17 09:12:43;;;;;;;11.10;1.65;;;;;;;;;;5014480;28;20210;-75
2023/12/17 09:15:15;;;;;;;10.85;1.80;;;;;;;;;;5011051;28;20203;-76
2023/12/17 09:17:44;;;;;;;6.93;1.52;;;;;;;;;;5006303;28;20662;-76
2023/12/17 09:20:15;;;;;;;13.00;2.30;;;;;;;;;;5012353;28;20705;-77
2023/12/17 09:22:45;;;;;;;7.97;1.70;;;;;;;;;;5007267;28;20249;-76
2023/12/17 09:25:15;;;;;;;10.90;2.20;;;;;;;;;;5005012;28;20566;-76
2023/12/17 09:27:45;;;;;;;8.73;1.70;;;;;;;;;;5009872;28;20254;-76
2023/12/17 09:30:17;;;;;;;6.65;1.70;;;;;;;;;;5004520;28;20211;-76
2023/12/17 09:32:48;;;;;;;7.72;1.60;;;;;;;;;;4998771;28;20203;-76
2023/12/17 09:35:19;;;;;;;8.05;1.50;;;;;;;;;;5000623;28;20590;-75
2023/12/17 09:37:49;;;;;;;10.30;1.88;;;;;;;;;;5008797;28;20203;-75
2023/12/17 09:40:20;;;;;;;10.15;1.60;;;;;;;;;;5012670;28;20264;-75
2023/12/17 09:42:52;;;;;;;10.30;1.80;;;;;;;;;;5011086;28;20225;-75
2023/12/17 09:45:24;;;;;;;8.82;1.75;;;;;;;;;;5003318;28;20234;-76
2023/12/17 09:47:53;;;;;;;8.88;1.95;;;;;;;;;;5012266;28;20692;-76
2023/12/17 09:50:27;;;;;;;5.95;1.55;;;;;;;;;;5001349;28;20203;-76
2023/12/17 09:52:57;;;;;;;10.85;1.83;;;;;;;;;;5005588;28;20602;-76
2023/12/17 09:55:27;;;;;;;9.38;2.03;;;;;;;;;;5003784;28;20681;-75
2023/12/17 09:57:58;;;;;;;10.07;1.80;;;;;;;;;;5013310;28;20209;-75
2023/12/17 10:00:30;;;;;;;12.23;1.80;;;;;;;;;;5003491;28;20222;-76
2023/12/17 10:03:05;;;;;;;11.95;2.30;;;;;;;;;;5013161;28;20203;-75
2023/12/17 10:05:35;;;;;;;12.88;1.88;;;;;;;;;;5013231;28;20206;-75
2023/12/17 10:08:05;;;;;;;10.40;1.75;;;;;;;;;;5013110;28;20205;-75
2023/12/17 10:10:35;;;;;;;10.52;1.90;;;;;;;;;;5013011;28;20211;-76
2023/12/17 10:13:05;;;;;;;10.27;1.60;;;;;;;;;;5013613;28;20203;-78
2023/12/17 10:15:40;;;;;;;12.68;1.83;;;;;;;;;;5010238;28;20219;-76
2023/12/17 10:18:10;;;;;;;12.57;1.70;;;;;;;;;;4996340;28;20195;-76
2023/12/17 10:20:41;;;;;;;11.00;1.90;;;;;;;;;;4999820;28;20713;-77
2023/12/17 10:23:12;;;;;;;8.20;1.88;;;;;;;;;;4995167;28;20191;-75
2023/12/17 10:25:42;;;;;;;11.98;1.75;;;;;;;;;;5001223;28;20195;-76
2023/12/17 10:28:12;;;;;;;8.88;1.70;;;;;;;;;;5011140;28;20237;-76
2023/12/17 10:30:44;;;;;;;11.20;1.70;;;;;;;;;;5002455;28;20201;-76
2023/12/17 10:33:20;;;;;;;11.18;1.60;;;;;;;;;;5009268;28;20206;-75
2023/12/17 10:35:50;;;;;;;7.80;1.70;;;;;;;;;;5002185;28;20194;-74
2023/12/17 10:38:20;;;;;;;8.43;1.95;;;;;;;;;;5011125;28;20665;-76
2023/12/17 10:40:51;;;;;;;8.30;1.70;;;;;;;;;;4997276;28;20218;-76
2023/12/17 10:43:22;;;;;;;6.57;1.92;;;;;;;;;;5002691;28;20281;-76
2023/12/17 10:45:55;;;;;;;8.77;1.90;;;;;;;;;;5001637;28;20195;-76
2023/12/17 10:48:25;;;;;;;11.05;1.85;;;;;;;;;;5008588;28;20273;-76
2023/12/17 10:50:55;;;;;;;13.30;2.17;;;;;;;;;;4996977;28;20217;-76
2023/12/17 10:53:25;;;;;;;8.68;1.90;;;;;;;;;;5003875;28;20203;-76
2023/12/17 10:55:55;;;;;;;10.00;2.38;;;;;;;;;;5003462;28;20215;-76
2023/12/17 10:58:25;;;;;;;8.88;1.70;;;;;;;;;;5000770;28;20214;-76
2023/12/17 11:00:57;;;;;;;8.57;2.00;;;;;;;;;;5013811;28;20273;-77
2023/12/17 11:03:27;;;;;;;9.10;1.80;;;;;;;;;;5015395;28;20210;-75
2023/12/17 11:05:58;;;;;;;8.77;1.92;;;;;;;;;;4997833;28;20211;-76
2023/12/17 11:08:29;;;;;;;10.55;2.13;;;;;;;;;;5015894;28;20191;-75
2023/12/17 11:10:59;;;;;;;14.95;2.15;;;;;;;;;;5016254;28;20673;-76
2023/12/17 11:13:29;;;;;;;11.63;2.00;;;;;;;;;;5014206;28;20210;-75
2023/12/17 11:16:20;;;;;;;10.43;2.00;;;;;;;;;;4997920;28;20210;-74
2023/12/17 11:18:50;;;;;;;8.13;1.70;;;;;;;;;;5009589;28;20207;-76
2023/12/17 11:21:20;;;;;;;10.38;2.03;;;;;;;;;;5010196;28;20222;-75
2023/12/17 11:23:51;;;;;;;8.82;2.15;;;;;;;;;;5015131;28;20199;-76
2023/12/17 11:26:22;;;;;;;9.57;1.80;;;;;;;;;;5015826;28;20651;-75
2023/12/17 11:28:52;;;;;;;12.68;1.88;;;;;;;;;;5016145;28;20680;-75
2023/12/17 11:31:24;;;;;;;10.70;2.00;;;;;;;;;;5002877;28;20238;-75
2023/12/17 11:33:54;;;;;;;8.77;2.20;;;;;;;;;;5015716;28;20221;-75
2023/12/17 11:36:24;;;;;;;8.82;1.77;;;;;;;;;;5010830;28;20209;-75
2023/12/17 11:38:54;;;;;;;11.50;1.63;;;;;;;;;;5012673;28;20229;-75
2023/12/17 11:41:24;;;;;;;11.57;2.40;;;;;;;;;;5015306;28;20240;-75
2023/12/17 11:43:54;;;;;;;10.00;2.05;;;;;;;;;;5004211;28;20227;-76
2023/12/17 11:46:26;;;;;;;10.27;2.03;;;;;;;;;;5008533;28;20210;-76
2023/12/17 11:48:59;;;;;;;12.85;2.28;;;;;;;;;;5011198;28;20194;-76
2023/12/17 11:51:30;;;;;;;9.55;2.20;;;;;;;;;;5015070;28;20206;-76
2023/12/17 11:54:00;;;;;;;7.18;1.90;;;;;;;;;;5016565;28;20219;-77
2023/12/17 11:56:33;;;;;;;10.52;2.28;;;;;;;;;;4996413;28;20314;-75
2023/12/17 11:59:03;;;;;;;10.07;2.22;;;;;;;;;;4995877;28;20208;-77
2023/12/17 12:01:35;;;;;;;9.88;2.13;;;;;;;;;;5006406;28;20233;-76
2023/12/17 12:04:05;;;;;;;10.20;2.40;;;;;;;;;;5014967;28;20201;-76
2023/12/17 12:06:35;;;;;;;15.10;2.25;;;;;;;;;;5015217;28;20214;-76
2023/12/17 12:09:05;;;;;;;12.18;2.10;;;;;;;;;;5009588;28;20275;-76
2023/12/17 12:11:36;;;;;;;13.07;2.25;;;;;;;;;;5008831;28;20194;-75
2023/12/17 12:14:06;;;;;;;9.52;2.05;;;;;;;;;;5014753;28;20213;-76
2023/12/17 12:16:43;;;;;;;12.50;2.40;;;;;;;;;;4995907;28;20559;-77
2023/12/17 12:19:13;;;;;;;10.50;1.92;;;;;;;;;;4995719;28;20234;-77
2023/12/17 12:21:43;;;;;;;10.45;2.15;;;;;;;;;;4995541;28;20714;-77
2023/12/17 12:24:13;;;;;;;14.07;2.42;;;;;;;;;;4996072;28;20291;-76
2023/12/17 12:26:43;;;;;;;10.65;2.38;;;;;;;;;;4995804;28;20263;-76
2023/12/17 12:29:13;;;;;;;15.80;2.42;;;;;;;;;;4996277;28;20207;-76
2023/12/17 12:31:52;;;;;;;11.05;2.30;;;;;;;;;;5004202;28;20200;-76
2023/12/17 12:34:22;;;;;;;14.48;2.00;;;;;;;;;;4995466;28;20235;-76
2023/12/17 12:36:52;;;;;;;14.00;2.42;;;;;;;;;;4995298;28;20611;-76
2023/12/17 12:39:23;;;;;;;11.57;2.47;;;;;;;;;;5007344;28;20529;-76
2023/12/17 12:41:53;;;;;;;10.20;2.10;;;;;;;;;;4999917;28;20215;-76
2023/12/17 12:44:23;;;;;;;13.88;2.05;;;;;;;;;;4995004;28;20211;-76
2023/12/17 12:46:54;;;;;;;10.65;2.20;;;;;;;;;;4995174;28;20208;-76
2023/12/17 12:49:24;;;;;;;17.90;2.90;;;;;;;;;;5006170;28;20246;-76
2023/12/17 12:51:54;;;;;;;17.08;2.30;;;;;;;;;;5015015;28;20210;-77
2023/12/17 12:54:24;;;;;;;12.40;2.45;;;;;;;;;;5014976;28;20203;-76
2023/12/17 12:56:54;;;;;;;9.50;2.03;;;;;;;;;;5000271;28;20204;-76
2023/12/17 12:59:24;;;;;;;8.80;2.00;;;;;;;;;;4994845;28;20664;-76
2023/12/17 13:01:57;;;;;;;14.43;2.45;;;;;;;;;;4994956;28;20235;-76
2023/12/17 13:04:27;;;;;;;9.43;2.10;;;;;;;;;;5006414;28;20195;-76
2023/12/17 13:06:57;;;;;;;10.73;2.35;;;;;;;;;;5014426;28;20289;-76
2023/12/17 13:09:27;;;;;;;9.27;1.92;;;;;;;;;;5014598;28;20202;-76
2023/12/17 13:11:57;;;;;;;11.60;1.90;;;;;;;;;;5006081;28;20199;-77
2023/12/17 13:14:27;;;;;;;10.45;2.33;;;;;;;;;;5008704;28;20218;-76
2023/12/17 13:16:59;;;;;;;11.00;2.25;;;;;;;;;;5012892;28;20195;-76
2023/12/17 13:19:29;;;;;;;10.60;2.05;;;;;;;;;;5009131;28;20191;-77
2023/12/17 13:21:59;;;;;;;10.30;2.13;;;;;;;;;;5000065;28;20228;-76
2023/12/17 13:24:28;;;;;;;9.13;2.17;;;;;;;;;;4994722;28;20208;-76
2023/12/17 13:26:59;;;;;;;12.70;2.40;;;;;;;;;;5011916;28;20233;-76
2023/12/17 13:29:29;;;;;;;9.60;2.28;;;;;;;;;;5013832;28;20213;-77
2023/12/17 13:32:01;;;;;;;12.88;2.22;;;;;;;;;;5009390;28;20203;-76
2023/12/17 13:34:31;;;;;;;11.00;2.13;;;;;;;;;;5012056;28;20286;-76
2023/12/17 13:37:01;;;;;;;9.75;2.20;;;;;;;;;;5007887;28;20713;-76
2023/12/17 13:39:31;;;;;;;8.43;2.10;;;;;;;;;;5006272;28;20305;-77
2023/12/17 13:42:01;;;;;;;10.85;2.40;;;;;;;;;;5013470;28;20285;-77
2023/12/17 13:44:31;;;;;;;8.50;1.95;;;;;;;;;;5006684;28;20558;-77
2023/12/17 13:47:03;;;;;;;6.57;1.85;;;;;;;;;;5001184;28;20261;-76
2023/12/17 13:49:36;;;;;;;9.50;2.50;;;;;;;;;;4996321;28;20192;-76
2023/12/17 13:52:06;;;;;;;12.77;2.22;;;;;;;;;;4996537;28;20206;-76
2023/12/17 13:54:36;;;;;;;8.52;2.28;;;;;;;;;;5001591;28;20202;-76
2023/12/17 13:57:06;;;;;;;13.50;2.67;;;;;;;;;;5006745;28;20210;-76
2023/12/17 13:59:36;;;;;;;8.50;2.40;;;;;;;;;;4996659;28;20294;-77
2023/12/17 14:02:08;;;;;;;7.78;1.98;;;;;;;;;;5002856;28;20580;-75
2023/12/17 14:04:39;;;;;;;15.88;2.97;;;;;;;;;;4994906;28;20655;-76
2023/12/17 14:07:09;;;;;;;9.00;2.08;;;;;;;;;;4993750;28;20192;-75
2023/12/17 14:09:40;;;;;;;15.45;2.10;;;;;;;;;;4993805;28;20200;-76
2023/12/17 14:12:12;;;;;;;9.27;2.35;;;;;;;;;;5010951;28;20282;-76
2023/12/17 14:14:43;;;;;;;13.32;2.35;;;;;;;;;;5008592;28;20278;-76
2023/12/17 14:17:17;;;;;;;12.55;2.47;;;;;;;;;;4999455;28;20205;-77
2023/12/17 14:19:47;;;;;;;11.98;2.72;;;;;;;;;;5013137;28;20274;-76
2023/12/17 14:22:17;;;;;;;8.63;2.15;;;;;;;;;;5005776;28;20230;-76
2023/12/17 14:24:48;;;;;;;9.55;2.50;;;;;;;;;;5006135;28;20195;-76
2023/12/17 14:27:17;;;;;;;11.13;2.20;;;;;;;;;;4996612;28;20254;-76
2023/12/17 14:29:47;;;;;;;11.85;2.30;;;;;;;;;;5004073;28;20199;-76
2023/12/17 14:32:19;;;;;;;7.72;1.95;;;;;;;;;;5012721;28;20274;-76
2023/12/17 14:34:49;;;;;;;8.95;2.25;;;;;;;;;;4997669;28;20272;-77
2023/12/17 14:37:20;;;;;;;9.05;1.98;;;;;;;;;;4997610;28;20206;-77
2023/12/17 14:39:50;;;;;;;12.48;2.17;;;;;;;;;;5007629;28;20187;-75
2023/12/17 14:42:20;;;;;;;10.25;2.20;;;;;;;;;;5016680;28;20230;-75
2023/12/17 14:44:50;;;;;;;11.98;2.70;;;;;;;;;;4998604;28;20200;-75
2023/12/17 14:47:22;;;;;;;8.68;2.10;;;;;;;;;;4999537;28;20312;-75
2023/12/17 14:49:51;;;;;;;10.85;2.10;;;;;;;;;;4999454;28;20562;-75
2023/12/17 14:52:21;;;;;;;11.75;2.30;;;;;;;;;;5009164;28;20582;-75
2023/12/17 14:54:50;;;;;;;9.18;2.47;;;;;;;;;;5012644;28;20199;-74
2023/12/17 14:57:20;;;;;;;12.77;2.35;;;;;;;;;;5007171;28;20207;-75
2023/12/17 14:59:50;;;;;;;11.90;2.65;;;;;;;;;;5007449;28;20201;-75
2023/12/17 15:02:22;;;;;;;7.85;2.17;;;;;;;;;;5002923;28;20227;-75